Time;durP1;ratioP1;P1;durP2;ratioP2;P2;SDS_P1;SDS_P2;PMS_P1;PMS_P2;Temp;Humidity;BMP_temperature;BMP_pressure;BME280_temperature;BME280_humidity;BME280_pressure;Samples;Min_cycle;Max_cycle;Signal;HPM_P1;HPM_P2
2021/03/08 06:41:00;;;;;;;38.07;28.03;;;;;;;4.08;54.48;99688.81;5056174;28;20098;-79
2021/03/08 06:43:29;;;;;;;36.53;26.73;;;;;;;4.81;54.58;99801.84;5059465;28;20029;-78
2021/03/08 06:45:57;;;;;;;36.10;26.20;;;;;;;4.86;54.73;99815.34;5066571;22;20048;-79
2021/03/08 06:48:23;;;;;;;31.37;24.10;;;;;;;4.94;54.72;99812.06;5058925;28;20036;-79
2021/03/08 06:51:11;;;;;;;33.27;23.67;;;;;;;4.98;55.00;99829.13;5040947;28;20025;-79
2021/03/08 06:53:37;;;;;;;35.83;26.00;;;;;;;3.81;54.28;99628.50;5056971;28;20328;-80
2021/03/08 06:56:17;;;;;;;36.57;26.47;;;;;;;5.06;54.97;99827.50;5056283;28;20048;-78
2021/03/08 06:58:45;;;;;;;34.37;25.33;;;;;;;3.99;54.48;99650.41;5035157;28;20025;-75
2021/03/08 07:01:27;;;;;;;38.97;27.60;;;;;;;5.11;54.82;99825.28;5029374;28;20398;-76
2021/03/08 07:03:55;;;;;;;37.07;26.07;;;;;;;5.15;54.58;99825.03;5025992;28;20101;-79
2021/03/08 07:06:21;;;;;;;38.53;25.97;;;;;;;5.27;54.50;99819.53;5033908;28;20029;-79
2021/03/08 07:08:47;;;;;;;32.07;24.10;;;;;;;5.35;54.47;99811.00;5027343;28;20025;-79
2021/03/08 07:11:36;;;;;;;35.93;24.40;;;;;;;5.32;55.23;99803.44;5045580;23;20102;-77
2021/03/08 07:14:15;;;;;;;27.07;19.90;;;;;;;5.08;54.46;99735.75;5044629;28;20124;-76
2021/03/08 07:16:41;;;;;;;27.47;19.37;;;;;;;5.27;54.76;99779.44;5070945;22;20045;-76
2021/03/08 07:19:06;;;;;;;27.10;18.70;;;;;;;5.50;54.53;99824.50;5071606;28;20397;-77
2021/03/08 07:21:32;;;;;;;30.90;19.67;;;;;;;5.32;54.74;99796.41;5054081;28;20074;-83
2021/03/08 07:24:12;;;;;;;25.30;17.30;;;;;;;5.42;55.01;99814.72;5051860;28;20029;-79
2021/03/08 07:26:51;;;;;;;24.83;16.10;;;;;;;5.58;54.73;99812.38;5078440;28;20028;-76
2021/03/08 07:29:18;;;;;;;22.13;16.47;;;;;;;5.18;54.45;99752.28;5036798;28;20063;-80
2021/03/08 07:34:23;;;;;;;22.98;16.80;;;;;;;5.42;54.54;99789.38;5042387;23;20046;-78
2021/03/08 07:37:00;;;;;;;25.90;18.17;;;;;;;5.66;54.99;99816.91;5036887;28;20060;-82
2021/03/08 07:39:27;;;;;;;22.33;17.10;;;;;;;5.51;54.70;99779.84;5060407;28;20451;-80
2021/03/08 07:42:09;;;;;;;22.70;15.30;;;;;;;5.60;54.48;99784.25;5066278;23;20044;-82
2021/03/08 07:44:46;;;;;;;21.10;15.05;;;;;;;5.74;54.76;99802.13;5056937;28;20496;-80
2021/03/08 07:47:17;;;;;;;20.80;16.47;;;;;;;5.80;54.82;99805.16;5079980;28;20049;-79
2021/03/08 07:49:42;;;;;;;25.40;15.90;;;;;;;5.42;54.75;99726.53;5055795;28;20404;-77
2021/03/08 07:52:10;;;;;;;22.13;15.83;;;;;;;5.95;54.55;99783.66;5043120;28;20040;-76
2021/03/08 07:54:53;;;;;;;26.50;17.37;;;;;;;6.07;54.41;99784.31;5054550;28;20462;-78
2021/03/08 07:57:18;;;;;;;26.40;16.47;;;;;;;6.16;54.09;99772.97;5060282;28;20063;-79
2021/03/08 07:59:44;;;;;;;27.53;17.37;;;;;;;5.81;54.09;99708.06;5051790;28;20037;-75
2021/03/08 08:02:10;;;;;;;29.23;18.60;;;;;;;5.80;53.84;99682.03;5053529;28;20033;-78
2021/03/08 08:04:36;;;;;;;30.90;20.43;;;;;;;6.31;53.61;99745.31;5059460;28;20100;-76
2021/03/08 08:07:06;;;;;;;33.50;22.03;;;;;;;6.50;53.68;99754.88;5062055;28;20025;-77
2021/03/08 08:09:43;;;;;;;29.87;19.43;;;;;;;6.54;53.91;99737.03;5054787;28;20025;-76
2021/03/08 08:12:14;;;;;;;29.73;18.53;;;;;;;6.21;53.69;99672.91;5060775;28;20116;-80
2021/03/08 08:14:41;;;;;;;27.33;19.13;;;;;;;6.63;53.36;99726.47;5057783;28;20029;-76
2021/03/08 08:17:14;;;;;;;29.80;20.30;;;;;;;6.23;53.37;99647.38;5049373;28;20417;-76
2021/03/08 08:19:43;;;;;;;29.23;20.30;;;;;;;6.75;53.29;99724.50;5040995;28;20110;-76
2021/03/08 08:22:21;;;;;;;27.73;19.57;;;;;;;7.01;52.79;99756.06;5059750;28;20037;-76
2021/03/08 08:24:52;;;;;;;27.23;19.50;;;;;;;7.06;52.97;99760.88;5055131;28;20041;-76
2021/03/08 08:27:18;;;;;;;30.90;19.00;;;;;;;7.05;52.76;99738.22;5058872;28;20399;-77
2021/03/08 08:29:46;;;;;;;25.97;18.43;;;;;;;7.09;52.37;99740.41;5040515;28;20292;-76
2021/03/08 08:32:12;;;;;;;27.67;18.83;;;;;;;7.28;52.77;99750.72;5022386;28;20044;-76
2021/03/08 08:34:40;;;;;;;28.57;18.53;;;;;;;7.42;52.17;99751.16;5038501;28;20082;-76
2021/03/08 08:37:20;;;;;;;30.47;19.80;;;;;;;7.39;51.93;99730.44;5021030;28;20116;-76
2021/03/08 08:39:51;;;;;;;32.87;19.77;;;;;;;7.55;51.84;99734.06;5044096;28;20109;-76
2021/03/08 08:42:29;;;;;;;28.67;20.05;;;;;;;7.28;51.41;99674.56;5028874;28;20040;-77
2021/03/08 08:44:57;;;;;;;31.07;18.53;;;;;;;7.75;51.68;99742.56;5043948;28;20025;-77
2021/03/08 08:47:23;;;;;;;27.97;18.00;;;;;;;7.85;51.79;99739.81;5045812;28;20025;-78
2021/03/08 08:49:54;;;;;;;29.13;18.00;;;;;;;7.96;51.32;99731.66;5051163;28;20033;-75
2021/03/08 08:52:56;;;;;;;24.37;16.43;;;;;;;8.05;50.40;99730.72;5055412;28;20056;-77
2021/03/08 08:55:42;;;;;;;19.87;14.43;;;;;;;7.53;51.31;99616.97;5057053;28;20044;-77
2021/03/08 08:58:20;;;;;;;20.20;15.40;;;;;;;8.17;49.86;99689.19;5040210;28;20438;-76
2021/03/08 09:01:07;;;;;;;22.17;16.38;;;;;;;8.43;50.02;99708.41;5050165;28;20092;-77
2021/03/08 09:04:00;;;;;;;21.07;15.63;;;;;;;8.51;49.32;99703.16;5048043;28;20038;-75
2021/03/08 09:06:38;;;;;;;20.20;14.52;;;;;;;8.59;49.01;99704.97;5043328;28;20029;-76
2021/03/08 09:09:04;;;;;;;21.77;16.63;;;;;;;8.14;49.58;99603.53;5056591;28;20028;-78
2021/03/08 09:11:57;;;;;;;24.73;16.83;;;;;;;8.73;48.37;99691.19;5056337;28;20120;-77
2021/03/08 09:14:42;;;;;;;23.55;16.08;;;;;;;8.76;48.70;99676.88;5048207;28;20029;-75
2021/03/08 09:17:10;;;;;;;25.02;17.83;;;;;;;8.56;48.62;99631.63;5045961;28;20037;-79
2021/03/08 09:19:36;;;;;;;26.65;17.77;;;;;;;9.04;48.54;99699.31;5036331;28;20024;-81
2021/03/08 09:22:31;;;;;;;20.83;16.83;;;;;;;9.07;48.40;99708.69;5035276;28;20215;-79
2021/03/08 09:25:01;;;;;;;24.30;16.90;;;;;;;8.88;48.11;99655.34;5052369;28;20107;-80
2021/03/08 09:27:30;;;;;;;20.15;14.13;;;;;;;9.19;48.23;99678.41;5048100;28;20037;-76
2021/03/08 09:30:20;;;;;;;23.48;16.30;;;;;;;9.42;47.66;99670.63;5032125;28;20039;-77
2021/03/08 09:33:05;;;;;;;25.48;16.70;;;;;;;9.59;47.36;99664.34;5024856;28;20032;-77
2021/03/08 09:35:38;;;;;;;22.23;17.10;;;;;;;9.76;46.92;99663.31;5036720;28;20475;-77
2021/03/08 09:38:09;;;;;;;27.00;17.10;;;;;;;9.24;46.68;99563.63;5053861;28;20032;-76
2021/03/08 09:40:41;;;;;;;25.95;17.55;;;;;;;10.04;46.38;99684.81;5018671;28;20021;-76
2021/03/08 09:43:38;;;;;;;21.92;17.23;;;;;;;10.17;46.41;99668.44;5017212;28;20049;-75
2021/03/08 09:46:16;;;;;;;23.95;16.45;;;;;;;10.31;46.17;99664.28;5009182;28;20293;-79
2021/03/08 09:48:44;;;;;;;21.73;16.02;;;;;;;10.49;45.79;99656.94;5031664;28;20121;-77
2021/03/08 09:51:09;;;;;;;21.88;15.73;;;;;;;10.59;45.62;99656.72;5039757;28;20052;-77
2021/03/08 09:53:37;;;;;;;28.70;18.20;;;;;;;10.31;45.72;99607.03;5020444;28;20563;-78
2021/03/08 09:56:05;;;;;;;22.63;15.43;;;;;;;10.24;45.24;99552.50;5018480;28;20053;-77
2021/03/08 09:58:30;;;;;;;23.77;16.02;;;;;;;10.99;44.86;99652.94;5035548;28;20128;-76
2021/03/08 10:00:59;;;;;;;22.63;16.30;;;;;;;11.05;44.82;99642.47;5017999;28;20111;-78
2021/03/08 10:03:24;;;;;;;23.33;16.80;;;;;;;11.31;44.23;99644.75;5034183;28;20083;-77
2021/03/08 10:05:53;;;;;;;23.92;16.35;;;;;;;11.37;44.33;99632.63;5035691;28;20029;-77
2021/03/08 10:18:28;;;;;;;19.30;13.63;;;;;;;12.09;43.24;99595.78;5026395;28;20172;-74
2021/03/08 10:21:04;;;;;;;19.30;14.52;;;;;;;12.14;43.00;99580.16;5032378;28;20040;-78
2021/03/08 10:23:31;;;;;;;18.73;14.35;;;;;;;11.85;42.42;99514.88;5018865;28;20030;-77
2021/03/08 10:26:13;;;;;;;20.90;15.35;;;;;;;12.14;42.50;99545.75;5015737;28;20103;-74
2021/03/08 10:28:50;;;;;;;19.77;14.38;;;;;;;12.49;42.06;99589.06;5032850;28;20036;-74
2021/03/08 10:31:22;;;;;;;16.85;13.25;;;;;;;12.63;42.71;99585.56;5040095;28;20098;-74
2021/03/08 10:33:52;;;;;;;19.23;14.88;;;;;;;12.68;41.84;99591.13;5055366;28;20025;-75
2021/03/08 10:36:23;;;;;;;17.70;13.18;;;;;;;12.21;41.64;99506.13;5055179;28;20039;-78
2021/03/08 10:38:53;;;;;;;19.60;13.68;;;;;;;12.71;41.09;99564.25;5055190;28;20075;-75
2021/03/08 10:41:20;;;;;;;19.90;14.98;;;;;;;12.93;41.16;99578.28;5041392;28;20028;-77
2021/03/08 10:43:46;;;;;;;18.40;13.65;;;;;;;12.61;41.11;99523.16;5075168;28;20470;-77
2021/03/08 10:49:50;;;;;;;17.02;12.65;;;;;;;13.00;40.47;99525.31;5050789;28;20051;-77
2021/03/08 10:55:38;;;;;;;22.15;13.40;;;;;;;13.03;40.43;99478.03;5050622;28;20079;-75
2021/03/08 10:58:03;;;;;;;16.10;11.43;;;;;;;13.52;40.50;99546.06;5036310;28;20079;-74
2021/03/08 11:00:31;;;;;;;14.75;11.88;;;;;;;13.76;39.85;99543.91;5043655;28;20037;-78
2021/03/08 11:02:59;;;;;;;17.65;12.25;;;;;;;13.90;39.82;99535.81;5044718;28;20112;-78
2021/03/08 11:05:25;;;;;;;15.55;12.30;;;;;;;13.81;39.42;99491.88;5042417;28;20079;-77
2021/03/08 11:07:51;;;;;;;15.65;12.57;;;;;;;14.21;39.15;99529.16;5054573;28;20028;-77
2021/03/08 11:10:31;;;;;;;17.17;12.40;;;;;;;14.41;39.07;99522.03;5036801;28;20036;-76
2021/03/08 11:13:07;;;;;;;17.15;14.43;;;;;;;14.19;38.48;99449.69;5054688;28;20120;-77
2021/03/08 11:15:36;;;;;;;16.95;12.55;;;;;;;14.40;38.55;99469.13;5054712;28;20060;-78
2021/03/08 11:18:03;;;;;;;13.27;10.38;;;;;;;14.39;38.39;99440.91;5043024;28;20083;-77
2021/03/08 11:20:30;;;;;;;12.95;10.00;;;;;;;14.43;37.84;99416.44;5037639;28;20041;-78
2021/03/08 11:23:04;;;;;;;13.95;9.65;;;;;;;15.14;37.67;99503.44;5044177;28;20024;-79
2021/03/08 11:25:41;;;;;;;14.35;11.95;;;;;;;15.25;37.44;99502.78;5036392;28;20064;-77
2021/03/08 11:28:17;;;;;;;12.57;10.15;;;;;;;14.99;36.89;99439.84;5054465;28;20028;-78
2021/03/08 11:30:49;;;;;;;11.63;9.55;;;;;;;15.44;37.12;99472.63;5054318;28;20021;-78
2021/03/08 11:33:15;;;;;;;12.13;9.95;;;;;;;15.30;36.79;99443.63;5054308;28;20085;-78
2021/03/08 11:35:41;;;;;;;9.57;8.55;;;;;;;15.72;36.58;99474.19;5029987;28;20029;-76
2021/03/08 11:38:12;;;;;;;9.07;7.30;;;;;;;15.57;35.59;99448.66;5041705;28;20025;-77
2021/03/08 11:43:45;;;;;;;10.32;7.30;;;;;;;16.08;34.89;99461.06;5041598;28;20286;-76
2021/03/08 11:46:10;;;;;;;10.80;8.07;;;;;;;16.12;34.82;99453.47;5049992;28;20344;-77
2021/03/08 11:48:36;;;;;;;10.02;7.78;;;;;;;15.95;34.55;99405.25;5043172;28;20091;-79
2021/03/08 11:51:01;;;;;;;12.10;8.40;;;;;;;16.25;34.28;99449.88;5037553;28;20356;-77
2021/03/08 11:53:27;;;;;;;10.05;7.18;;;;;;;16.27;34.14;99432.66;5035385;28;20033;-77
2021/03/08 11:55:52;;;;;;;8.70;7.32;;;;;;;15.97;33.88;99381.06;5051842;28;20029;-76
2021/03/08 11:58:19;;;;;;;11.68;7.65;;;;;;;15.99;33.44;99387.78;5035298;28;20035;-77
2021/03/08 12:00:44;;;;;;;8.95;7.32;;;;;;;16.14;33.59;99412.25;5030073;28;20044;-77
2021/03/08 12:03:09;;;;;;;9.38;7.10;;;;;;;16.10;33.44;99402.25;5049324;28;20439;-76
2021/03/08 12:05:35;;;;;;;8.85;6.38;;;;;;;16.04;33.03;99408.44;5034311;28;20370;-75
2021/03/08 12:08:00;;;;;;;8.60;6.10;;;;;;;15.35;33.35;99342.72;5052324;28;20495;-77
2021/03/08 12:10:25;;;;;;;7.65;6.75;;;;;;;15.71;33.39;99393.53;5035044;28;20545;-78
2021/03/08 12:12:51;;;;;;;9.18;7.22;;;;;;;15.80;33.68;99397.56;5051543;28;20037;-76
2021/03/08 12:15:16;;;;;;;10.70;7.22;;;;;;;15.80;33.80;99400.22;5034975;28;20095;-76
2021/03/08 12:17:42;;;;;;;11.65;7.68;;;;;;;15.69;33.51;99394.78;5052375;28;20132;-75
2021/03/08 12:20:10;;;;;;;8.35;6.43;;;;;;;15.40;33.00;99382.81;5050542;28;20029;-77
2021/03/08 12:22:39;;;;;;;6.95;5.57;;;;;;;14.65;32.76;99310.72;5048924;28;20037;-77
2021/03/08 12:25:07;;;;;;;11.75;8.32;;;;;;;14.96;32.48;99387.09;5049876;28;20052;-75
2021/03/08 12:27:33;;;;;;;10.57;6.28;;;;;;;14.60;32.86;99356.53;5046496;28;20021;-76
2021/03/08 12:29:58;;;;;;;7.18;5.18;;;;;;;14.59;32.46;99352.22;5024164;28;20454;-75
2021/03/08 12:32:24;;;;;;;8.45;5.75;;;;;;;14.64;33.19;99367.53;5052707;28;20424;-75
2021/03/08 12:34:49;;;;;;;6.80;4.93;;;;;;;14.24;32.33;99306.50;5045645;28;20325;-77
2021/03/08 12:37:15;;;;;;;6.75;4.80;;;;;;;14.48;32.57;99365.34;5039863;28;20031;-77
2021/03/08 12:39:40;;;;;;;7.30;5.13;;;;;;;14.51;32.29;99378.19;5053900;28;20036;-76
2021/03/08 12:42:09;;;;;;;6.35;5.10;;;;;;;14.27;32.26;99343.28;5044118;28;20033;-78
2021/03/08 12:44:34;;;;;;;6.72;5.55;;;;;;;14.02;31.98;99323.66;5045587;28;20029;-77
2021/03/08 12:47:00;;;;;;;8.75;5.28;;;;;;;14.33;32.09;99373.50;5041972;28;20086;-77
2021/03/08 12:49:25;;;;;;;8.77;5.95;;;;;;;14.39;32.33;99363.88;5025142;28;20021;-76
2021/03/08 12:51:51;;;;;;;6.15;5.07;;;;;;;14.41;32.65;99375.13;5056866;28;20029;-75
2021/03/08 12:54:16;;;;;;;9.00;5.88;;;;;;;14.14;32.70;99329.19;5053026;28;20037;-79
2021/03/08 12:56:42;;;;;;;7.70;5.40;;;;;;;14.29;32.36;99333.25;5056194;28;20078;-76
2021/03/08 12:59:07;;;;;;;9.13;5.85;;;;;;;14.45;32.57;99355.94;5052645;28;20422;-77
2021/03/08 13:01:33;;;;;;;8.68;4.93;;;;;;;14.28;31.92;99344.91;5054590;28;20029;-77
2021/03/08 13:04:01;;;;;;;6.10;4.38;;;;;;;14.45;31.05;99353.28;5055221;28;20024;-75
2021/03/08 13:06:26;;;;;;;7.22;4.93;;;;;;;14.47;31.34;99351.22;5055165;28;20036;-77
2021/03/08 13:08:54;;;;;;;10.32;6.25;;;;;;;14.47;31.41;99353.06;5048113;28;20025;-77
2021/03/08 13:11:19;;;;;;;9.20;5.22;;;;;;;14.47;31.34;99351.22;5037746;28;20027;-77
2021/03/08 13:13:44;;;;;;;6.85;4.85;;;;;;;14.09;30.89;99294.47;5048658;28;20347;-76
2021/03/08 13:16:10;;;;;;;7.20;5.43;;;;;;;14.44;31.19;99343.69;5036683;28;20029;-75
2021/03/08 13:18:35;;;;;;;8.13;5.07;;;;;;;14.46;31.01;99346.13;5053678;28;20032;-78
2021/03/08 13:21:01;;;;;;;7.35;5.70;;;;;;;14.00;30.56;99278.75;5028667;28;20394;-77
2021/03/08 13:23:26;;;;;;;6.20;5.22;;;;;;;14.46;30.61;99348.78;5037166;28;20394;-75
2021/03/08 13:25:52;;;;;;;6.88;4.97;;;;;;;14.41;30.28;99341.41;5054740;28;20032;-73
2021/03/08 13:28:17;;;;;;;7.55;5.85;;;;;;;14.40;30.44;99349.59;5038434;28;20350;-75
2021/03/08 13:30:43;;;;;;;7.68;5.32;;;;;;;14.37;30.13;99342.84;5036162;28;20423;-74
2021/03/08 13:33:09;;;;;;;8.68;5.25;;;;;;;13.91;29.91;99258.75;5054908;28;20025;-76
2021/03/08 13:35:34;;;;;;;7.07;5.68;;;;;;;14.28;29.97;99317.53;5034087;28;20036;-77
2021/03/08 13:38:00;;;;;;;7.07;5.18;;;;;;;14.17;29.98;99300.41;5040829;28;20060;-77
2021/03/08 13:40:25;;;;;;;7.40;5.45;;;;;;;14.47;29.78;99343.28;5041031;28;20025;-78
2021/03/08 13:42:51;;;;;;;10.45;5.60;;;;;;;14.41;29.99;99327.31;5056398;28;20035;-74
2021/03/08 13:45:16;;;;;;;5.93;5.13;;;;;;;14.50;29.37;99320.78;5056538;28;20033;-77
2021/03/08 13:47:43;;;;;;;5.93;5.15;;;;;;;14.46;29.96;99306.28;5037852;28;20454;-76
2021/03/08 13:50:09;;;;;;;6.78;5.20;;;;;;;14.45;29.58;99267.47;5074554;28;20029;-77
2021/03/08 13:52:35;;;;;;;7.38;5.20;;;;;;;14.84;29.59;99324.94;5058616;28;20044;-76
2021/03/08 13:55:01;;;;;;;6.50;4.93;;;;;;;14.64;29.51;99263.91;5049055;28;20108;-76
2021/03/08 13:57:26;;;;;;;9.15;5.80;;;;;;;14.83;29.79;99281.63;5055905;28;20028;-75
2021/03/08 13:59:52;;;;;;;8.00;5.07;;;;;;;15.27;29.49;99325.19;5055670;28;20538;-76
2021/03/08 14:02:17;;;;;;;7.30;5.13;;;;;;;15.30;29.13;99286.69;5038319;28;20079;-76
2021/03/08 14:04:43;;;;;;;9.18;5.65;;;;;;;15.06;28.89;99221.81;5055717;28;20436;-75
2021/03/08 14:07:09;;;;;;;8.27;5.43;;;;;;;15.87;28.84;99315.78;5056272;28;20035;-76
2021/03/08 14:09:35;;;;;;;7.18;5.88;;;;;;;15.80;28.34;99263.66;5018728;28;20033;-78
2021/03/08 14:12:01;;;;;;;8.15;6.15;;;;;;;16.24;27.87;99291.91;5041296;28;20087;-77
2021/03/08 14:14:26;;;;;;;5.47;4.32;;;;;;;16.09;27.51;99267.47;5052066;28;20442;-75
2021/03/08 14:16:52;;;;;;;7.15;4.80;;;;;;;16.61;27.92;99322.06;5055176;28;20111;-78
2021/03/08 14:19:17;;;;;;;10.32;6.05;;;;;;;16.78;27.39;99312.47;5037817;28;20505;-77
2021/03/08 14:21:43;;;;;;;10.95;6.07;;;;;;;15.91;27.35;99159.09;5037078;28;20032;-77
2021/03/08 14:24:09;;;;;;;8.07;5.63;;;;;;;16.37;27.47;99219.03;5031895;28;20111;-77
2021/03/08 14:26:34;;;;;;;5.72;4.90;;;;;;;16.92;27.02;99309.63;5055354;28;20025;-76
2021/03/08 14:28:59;;;;;;;12.25;7.63;;;;;;;16.79;27.69;99284.75;5055340;28;20047;-76
2021/03/08 14:31:25;;;;;;;12.05;8.73;;;;;;;16.74;27.45;99289.94;5046864;28;20028;-73
2021/03/08 14:33:51;;;;;;;10.35;6.63;;;;;;;16.47;27.32;99278.75;5025894;28;20037;-75
2021/03/08 14:36:16;;;;;;;9.45;6.35;;;;;;;16.57;27.84;99307.56;5050596;28;20176;-78
2021/03/08 14:38:42;;;;;;;10.90;7.82;;;;;;;16.19;27.78;99263.25;5050624;28;20461;-76
2021/03/08 14:41:07;;;;;;;9.45;6.10;;;;;;;16.47;27.86;99299.25;5033919;28;20031;-76
2021/03/08 14:43:33;;;;;;;9.63;6.45;;;;;;;16.39;28.05;99300.38;5048481;28;20024;-75
2021/03/08 14:45:58;;;;;;;11.73;6.60;;;;;;;16.05;27.96;99252.97;5047893;28;20079;-75
2021/03/08 14:48:24;;;;;;;9.32;5.15;;;;;;;16.28;27.94;99303.72;5034064;28;20427;-77
2021/03/08 14:50:49;;;;;;;8.00;5.43;;;;;;;16.27;28.09;99312.75;5045138;28;20033;-74
2021/03/08 14:53:14;;;;;;;10.05;5.38;;;;;;;16.02;28.03;99266.72;5046735;28;20346;-75
2021/03/08 14:55:41;;;;;;;8.07;5.05;;;;;;;15.74;28.08;99241.38;5051312;28;20025;-77
2021/03/08 14:58:06;;;;;;;9.20;5.20;;;;;;;16.04;28.68;99310.72;5053523;28;20430;-75
2021/03/08 15:00:32;;;;;;;9.75;6.40;;;;;;;15.50;28.60;99255.44;5052057;28;20032;-76
2021/03/08 15:02:57;;;;;;;7.43;5.45;;;;;;;15.42;28.69;99245.06;5054566;28;20040;-76
2021/03/08 15:05:23;;;;;;;11.05;6.72;;;;;;;15.50;29.04;99277.53;5035865;28;20351;-74
2021/03/08 15:07:48;;;;;;;7.28;5.90;;;;;;;15.22;29.44;99246.03;5053689;28;20098;-76
2021/03/08 15:10:14;;;;;;;7.90;6.20;;;;;;;15.07;29.57;99250.03;5048872;28;20428;-76
2021/03/08 15:12:40;;;;;;;8.38;5.60;;;;;;;15.28;29.36;99292.22;5032710;28;20021;-76
2021/03/08 15:15:07;;;;;;;9.40;5.80;;;;;;;15.20;29.73;99301.28;5054091;28;20060;-74
2021/03/08 15:17:33;;;;;;;7.72;6.35;;;;;;;15.14;29.84;99298.66;5039364;28;20020;-76
2021/03/08 15:19:58;;;;;;;9.68;6.88;;;;;;;15.02;30.14;99303.03;5056067;28;20079;-77
2021/03/08 15:22:24;;;;;;;10.55;7.05;;;;;;;14.89;30.62;99301.25;5054047;28;20142;-75
2021/03/08 15:24:49;;;;;;;13.07;9.02;;;;;;;14.47;30.71;99262.75;5047620;28;20035;-77
2021/03/08 15:27:16;;;;;;;18.65;11.77;;;;;;;14.44;31.24;99276.47;5050728;28;20055;-76
2021/03/08 15:29:43;;;;;;;17.52;11.90;;;;;;;14.23;31.55;99257.09;5044451;28;20029;-74
2021/03/08 15:32:09;;;;;;;24.15;13.60;;;;;;;14.41;31.77;99304.22;5044837;28;20116;-77
2021/03/08 15:34:36;;;;;;;23.88;14.20;;;;;;;14.35;32.04;99297.09;5051609;28;20091;-77
2021/03/08 15:37:02;;;;;;;17.52;12.20;;;;;;;14.29;32.08;99297.91;5049555;28;20025;-76
2021/03/08 15:39:27;;;;;;;20.48;13.65;;;;;;;14.15;32.37;99285.69;5053497;28;20040;-77
2021/03/08 15:41:53;;;;;;;21.60;14.70;;;;;;;14.15;32.49;99296.31;5052578;28;20406;-75
2021/03/08 15:44:19;;;;;;;23.90;16.40;;;;;;;14.11;32.94;99295.06;5028943;28;20052;-76
2021/03/08 15:46:45;;;;;;;24.55;16.77;;;;;;;13.66;32.81;99233.88;5016800;28;20059;-76
2021/03/08 15:49:10;;;;;;;27.08;17.13;;;;;;;13.80;33.10;99264.69;5034382;28;20033;-77
2021/03/08 15:51:35;;;;;;;28.52;17.85;;;;;;;13.90;33.13;99286.31;5035001;28;20032;-77
2021/03/08 15:54:01;;;;;;;27.05;17.33;;;;;;;13.86;33.67;99293.06;5017879;28;20082;-75
2021/03/08 15:56:27;;;;;;;25.90;16.40;;;;;;;13.78;33.55;99290.63;5017190;28;20329;-76
2021/03/08 15:58:52;;;;;;;33.58;19.33;;;;;;;13.62;33.83;99275.91;5016905;28;20036;-75
2021/03/08 16:01:17;;;;;;;29.92;19.23;;;;;;;13.18;34.33;99220.78;5016851;28;20022;-76
2021/03/08 16:03:43;;;;;;;26.33;18.40;;;;;;;13.33;34.07;99247.13;5034270;28;20025;-78
2021/03/08 16:06:08;;;;;;;28.80;18.58;;;;;;;13.34;34.48;99254.88;5034414;28;20116;-75
2021/03/08 16:08:35;;;;;;;26.50;17.48;;;;;;;13.31;34.38;99265.88;5034207;28;20340;-76
2021/03/08 16:11:00;;;;;;;26.50;16.13;;;;;;;13.47;34.73;99293.06;5016788;28;20352;-76
2021/03/08 16:13:26;;;;;;;27.45;16.40;;;;;;;13.14;34.88;99261.94;5020364;28;20025;-77
2021/03/08 16:15:51;;;;;;;25.67;14.90;;;;;;;13.10;35.47;99258.06;5039159;28;20321;-78
2021/03/08 16:18:17;;;;;;;21.48;14.73;;;;;;;13.22;35.22;99298.09;5038339;28;20064;-76
2021/03/08 16:20:42;;;;;;;22.38;15.40;;;;;;;13.24;35.61;99296.88;5038177;28;20036;-76
2021/03/08 16:23:07;;;;;;;26.42;15.35;;;;;;;13.21;36.01;99297.28;5038394;28;20313;-77
2021/03/08 16:25:33;;;;;;;24.52;16.70;;;;;;;13.14;36.08;99304.34;5038099;28;20025;-78
2021/03/08 16:28:00;;;;;;;26.05;18.67;;;;;;;13.10;36.24;99300.47;5020780;28;20021;-76
2021/03/08 16:30:26;;;;;;;35.15;20.42;;;;;;;13.07;36.36;99306.19;5038457;28;20029;-76
2021/03/08 16:32:51;;;;;;;36.22;22.23;;;;;;;13.01;36.11;99315.75;5037824;28;20029;-77
2021/03/08 16:35:17;;;;;;;32.42;22.92;;;;;;;12.98;36.61;99317.97;5037820;28;20052;-76
2021/03/08 16:37:43;;;;;;;35.00;23.60;;;;;;;12.74;36.23;99292.81;5037910;28;20033;-75
2021/03/08 16:42:40;;;;;;;27.15;16.50;;;;;;;12.86;36.60;99338.94;5036277;28;20061;-75
2021/03/08 16:45:07;;;;;;;30.83;19.05;;;;;;;12.65;36.82;99318.66;5037609;28;20103;-75
2021/03/08 16:47:33;;;;;;;31.65;22.45;;;;;;;12.78;37.19;99336.44;5020025;28;20032;-75
2021/03/08 16:49:58;;;;;;;33.80;23.30;;;;;;;12.75;37.09;99336.03;5037499;28;20029;-75
2021/03/08 16:52:24;;;;;;;40.17;25.90;;;;;;;12.69;38.02;99342.94;5037396;28;20029;-75
2021/03/08 16:54:50;;;;;;;44.15;27.00;;;;;;;12.59;38.27;99343.25;5036428;28;20112;-75
2021/03/08 16:57:15;;;;;;;42.88;27.30;;;;;;;12.53;39.32;99343.22;5037205;28;20025;-75
2021/03/08 16:59:41;;;;;;;40.40;25.40;;;;;;;12.56;39.29;99358.72;5037354;28;20496;-75
2021/03/08 17:02:07;;;;;;;39.88;24.48;;;;;;;12.45;39.78;99352.13;5037178;28;20041;-75
2021/03/08 17:04:32;;;;;;;38.28;24.05;;;;;;;12.27;40.60;99333.28;5019678;28;20359;-75
2021/03/08 17:06:58;;;;;;;40.50;25.85;;;;;;;12.40;41.44;99365.16;5037208;28;20025;-75
2021/03/08 17:09:23;;;;;;;38.10;24.27;;;;;;;12.36;40.85;99364.72;5037021;28;20029;-74
2021/03/08 17:11:49;;;;;;;36.08;22.27;;;;;;;12.33;41.41;99373.03;5037125;28;20017;-74
2021/03/08 17:14:14;;;;;;;27.58;19.40;;;;;;;11.73;42.10;99283.59;5036911;28;20321;-74
2021/03/08 17:16:39;;;;;;;29.15;18.83;;;;;;;12.15;41.91;99359.47;5019491;28;20132;-73
2021/03/08 17:19:05;;;;;;;26.10;15.77;;;;;;;12.23;43.04;99383.16;5037063;28;20063;-73
2021/03/08 17:21:30;;;;;;;24.08;15.93;;;;;;;12.21;43.28;99384.34;5035961;28;20032;-75
2021/03/08 17:23:56;;;;;;;21.83;14.00;;;;;;;12.19;44.25;99389.03;5036480;28;20083;-74
2021/03/08 17:26:21;;;;;;;18.98;12.23;;;;;;;12.01;44.06;99377.09;5019254;28;20037;-74
2021/03/08 17:28:47;;;;;;;19.38;12.65;;;;;;;12.05;44.21;99393.41;5036787;28;20028;-74
2021/03/08 17:31:12;;;;;;;17.05;12.00;;;;;;;12.02;45.06;99389.31;5036660;28;20095;-76
2021/03/08 17:33:38;;;;;;;16.80;10.70;;;;;;;12.01;44.95;99398.25;5019163;28;20320;-75
2021/03/08 17:36:05;;;;;;;19.23;11.68;;;;;;;11.98;45.34;99403.94;5036649;28;20112;-76
2021/03/08 17:38:31;;;;;;;19.40;11.40;;;;;;;11.53;45.34;99340.78;5036436;28;20032;-76
2021/03/08 17:40:56;;;;;;;20.40;11.10;;;;;;;11.63;46.16;99363.25;5018862;28;20116;-75
2021/03/08 17:43:22;;;;;;;17.48;10.48;;;;;;;11.40;46.64;99349.41;5036430;28;20025;-75
2021/03/08 17:45:48;;;;;;;19.52;12.10;;;;;;;11.72;46.89;99398.34;5036596;28;20108;-75
2021/03/08 17:48:13;;;;;;;18.70;10.60;;;;;;;11.66;47.17;99399.91;5036495;28;20454;-75
2021/03/08 17:50:39;;;;;;;14.05;10.35;;;;;;;11.59;47.60;99406.94;5018700;28;20029;-75
2021/03/08 17:53:04;;;;;;;14.32;10.10;;;;;;;11.58;47.75;99409.78;5018873;28;20022;-75
2021/03/08 17:55:29;;;;;;;12.88;9.30;;;;;;;11.32;48.13;99374.13;5036268;28;20026;-75
2021/03/08 17:57:55;;;;;;;14.68;9.45;;;;;;;11.60;48.42;99413.06;5018682;28;20423;-76
2021/03/08 18:00:21;;;;;;;12.63;9.20;;;;;;;11.18;47.97;99360.97;5036096;28;20424;-76
2021/03/08 18:02:47;;;;;;;13.50;9.23;;;;;;;11.39;48.32;99382.13;5036166;28;20029;-75
2021/03/08 18:05:12;;;;;;;11.60;8.60;;;;;;;11.46;48.58;99399.69;5036047;28;20033;-76
2021/03/08 18:07:39;;;;;;;12.88;9.05;;;;;;;11.66;48.02;99425.53;5036104;28;20119;-75
2021/03/08 18:10:07;;;;;;;12.02;8.88;;;;;;;11.60;47.83;99413.06;5035944;28;20358;-76
2021/03/08 18:12:33;;;;;;;12.48;9.65;;;;;;;11.66;48.23;99420.25;5035905;28;20494;-76
2021/03/08 18:14:58;;;;;;;15.05;10.30;;;;;;;11.55;48.32;99407.50;5018271;28;20025;-75
2021/03/08 18:17:24;;;;;;;18.15;12.10;;;;;;;11.56;48.78;99398.56;5018279;28;20029;-76
2021/03/08 18:19:49;;;;;;;20.25;12.00;;;;;;;11.44;48.49;99377.91;5035886;28;20030;-75
2021/03/08 18:22:15;;;;;;;18.20;11.10;;;;;;;11.73;49.22;99431.72;5035730;28;20032;-75
2021/03/08 18:24:41;;;;;;;15.98;9.52;;;;;;;11.74;48.53;99428.06;5035816;28;20383;-76
2021/03/08 18:27:07;;;;;;;13.57;9.35;;;;;;;11.59;49.07;99419.34;5035817;28;20052;-76
2021/03/08 18:29:33;;;;;;;13.18;9.13;;;;;;;11.69;49.75;99436.56;5017796;28;20515;-76
2021/03/08 18:31:58;;;;;;;11.95;9.05;;;;;;;11.57;49.30;99424.00;5035857;28;20104;-75
2021/03/08 18:34:24;;;;;;;12.60;9.02;;;;;;;11.58;49.66;99423.81;5035337;28;20036;-76